sensor_id;sensor_type;location;lat;lon;timestamp;pressure;altitude;pressure_sealevel;temperature;humidity
20755;BME280;26385;48.470;7.938;2022-11-14T00:02:18;99957.69;;;7.21;94.99
20755;BME280;26385;48.470;7.938;2022-11-14T00:04:47;99946.84;;;7.31;94.50
20755;BME280;26385;48.470;7.938;2022-11-14T00:07:13;99947.13;;;7.12;95.06
20755;BME280;26385;48.470;7.938;2022-11-14T00:09:39;99939.19;;;7.05;95.91
20755;BME280;26385;48.470;7.938;2022-11-14T00:12:07;99938.28;;;7.03;96.68
20755;BME280;26385;48.470;7.938;2022-11-14T00:14:33;99944.00;;;6.95;97.52
20755;BME280;26385;48.470;7.938;2022-11-14T00:16:58;99941.59;;;6.99;96.58
20755;BME280;26385;48.470;7.938;2022-11-14T00:19:24;99935.06;;;7.11;97.25
20755;BME280;26385;48.470;7.938;2022-11-14T00:21:52;99944.94;;;7.24;95.54
20755;BME280;26385;48.470;7.938;2022-11-14T00:24:19;99933.00;;;7.27;95.16
20755;BME280;26385;48.470;7.938;2022-11-14T00:26:44;99927.19;;;7.33;95.40
20755;BME280;26385;48.470;7.938;2022-11-14T00:29:11;99921.00;;;7.28;95.12
20755;BME280;26385;48.470;7.938;2022-11-14T00:31:36;99925.97;;;7.22;95.09
20755;BME280;26385;48.470;7.938;2022-11-14T00:34:02;99920.09;;;7.26;95.83
20755;BME280;26385;48.470;7.938;2022-11-14T00:36:27;99919.44;;;7.33;95.00
20755;BME280;26385;48.470;7.938;2022-11-14T00:38:53;99911.84;;;7.38;95.25
20755;BME280;26385;48.470;7.938;2022-11-14T00:41:21;99918.72;;;7.39;95.48
20755;BME280;26385;48.470;7.938;2022-11-14T00:43:46;99913.50;;;7.36;94.02
20755;BME280;26385;48.470;7.938;2022-11-14T00:46:11;99912.00;;;7.42;94.42
20755;BME280;26385;48.470;7.938;2022-11-14T00:48:37;99905.03;;;7.40;93.25
20755;BME280;26385;48.470;7.938;2022-11-14T00:51:02;99895.28;;;7.29;93.85
20755;BME280;26385;48.470;7.938;2022-11-14T00:53:27;99911.06;;;7.12;95.28
20755;BME280;26385;48.470;7.938;2022-11-14T00:55:52;99905.63;;;7.02;96.50
20755;BME280;26385;48.470;7.938;2022-11-14T00:58:18;99912.72;;;7.10;96.24
20755;BME280;26385;48.470;7.938;2022-11-14T01:00:43;99902.63;;;7.16;96.32
20755;BME280;26385;48.470;7.938;2022-11-14T01:03:08;99903.56;;;7.19;96.57
20755;BME280;26385;48.470;7.938;2022-11-14T01:05:40;99893.31;;;7.21;94.66
20755;BME280;26385;48.470;7.938;2022-11-14T01:08:05;99900.03;;;7.16;95.67
20755;BME280;26385;48.470;7.938;2022-11-14T01:10:30;99891.03;;;7.01;96.50
20755;BME280;26385;48.470;7.938;2022-11-14T01:12:55;99892.53;;;6.95;96.47
20755;BME280;26385;48.470;7.938;2022-11-14T01:15:21;99896.00;;;6.97;96.79
20755;BME280;26385;48.470;7.938;2022-11-14T01:17:46;99891.63;;;6.93;96.31
20755;BME280;26385;48.470;7.938;2022-11-14T01:20:11;99890.19;;;7.02;96.60
20755;BME280;26385;48.470;7.938;2022-11-14T01:22:37;99886.78;;;7.03;96.43
20755;BME280;26385;48.470;7.938;2022-11-14T01:25:02;99893.88;;;7.11;95.45
20755;BME280;26385;48.470;7.938;2022-11-14T01:27:30;99888.28;;;7.24;94.53
20755;BME280;26385;48.470;7.938;2022-11-14T01:29:55;99891.28;;;7.11;95.19
20755;BME280;26385;48.470;7.938;2022-11-14T01:32:21;99897.22;;;7.08;95.94
20755;BME280;26385;48.470;7.938;2022-11-14T01:34:46;99882.66;;;7.09;95.56
20755;BME280;26385;48.470;7.938;2022-11-14T01:37:11;99879.00;;;7.02;95.67
20755;BME280;26385;48.470;7.938;2022-11-14T01:39:36;99880.13;;;7.10;95.24
20755;BME280;26385;48.470;7.938;2022-11-14T01:42:02;99883.56;;;7.11;94.63
20755;BME280;26385;48.470;7.938;2022-11-14T01:44:56;99875.00;;;6.83;96.32
20755;BME280;26385;48.470;7.938;2022-11-14T01:47:25;99876.16;;;6.93;96.45
20755;BME280;26385;48.470;7.938;2022-11-14T01:49:57;99868.69;;;7.00;94.56
20755;BME280;26385;48.470;7.938;2022-11-14T01:52:30;99865.78;;;6.63;95.96
20755;BME280;26385;48.470;7.938;2022-11-14T01:55:00;99859.19;;;6.44;97.45
20755;BME280;26385;48.470;7.938;2022-11-14T01:57:29;99853.38;;;6.49;98.25
20755;BME280;26385;48.470;7.938;2022-11-14T01:59:59;99858.03;;;6.61;99.35
20755;BME280;26385;48.470;7.938;2022-11-14T02:02:26;99851.28;;;6.65;97.56
20755;BME280;26385;48.470;7.938;2022-11-14T02:04:56;99838.47;;;6.66;96.57
20755;BME280;26385;48.470;7.938;2022-11-14T02:07:24;99840.66;;;6.81;96.04
20755;BME280;26385;48.470;7.938;2022-11-14T02:09:52;99840.41;;;6.73;97.94
20755;BME280;26385;48.470;7.938;2022-11-14T02:12:18;99841.19;;;6.72;97.68
20755;BME280;26385;48.470;7.938;2022-11-14T02:14:46;99838.69;;;6.74;98.14
20755;BME280;26385;48.470;7.938;2022-11-14T02:17:13;99835.41;;;6.80;97.75
20755;BME280;26385;48.470;7.938;2022-11-14T02:19:47;99837.38;;;6.87;97.65
20755;BME280;26385;48.470;7.938;2022-11-14T02:22:13;99837.25;;;6.82;97.66
20755;BME280;26385;48.470;7.938;2022-11-14T02:24:38;99833.09;;;6.87;97.67
20755;BME280;26385;48.470;7.938;2022-11-14T02:27:04;99826.28;;;6.89;98.57
20755;BME280;26385;48.470;7.938;2022-11-14T02:29:31;99827.09;;;6.88;97.78
20755;BME280;26385;48.470;7.938;2022-11-14T02:31:57;99818.50;;;6.88;98.49
20755;BME280;26385;48.470;7.938;2022-11-14T02:34:23;99815.19;;;6.90;97.86
20755;BME280;26385;48.470;7.938;2022-11-14T02:36:48;99825.56;;;6.93;97.88
20755;BME280;26385;48.470;7.938;2022-11-14T02:39:13;99821.34;;;6.97;98.58
20755;BME280;26385;48.470;7.938;2022-11-14T02:41:39;99818.06;;;7.01;98.69
20755;BME280;26385;48.470;7.938;2022-11-14T02:44:04;99807.50;;;6.92;97.63
20755;BME280;26385;48.470;7.938;2022-11-14T02:46:29;99811.13;;;6.98;98.16
20755;BME280;26385;48.470;7.938;2022-11-14T02:48:55;99809.28;;;6.94;98.53
20755;BME280;26385;48.470;7.938;2022-11-14T02:51:20;99802.66;;;7.02;97.94
20755;BME280;26385;48.470;7.938;2022-11-14T02:53:45;99806.28;;;7.09;98.52
20755;BME280;26385;48.470;7.938;2022-11-14T02:56:10;99802.88;;;7.10;97.75
20755;BME280;26385;48.470;7.938;2022-11-14T02:58:36;99795.94;;;7.08;98.17
20755;BME280;26385;48.470;7.938;2022-11-14T03:01:01;99788.16;;;7.06;97.62
20755;BME280;26385;48.470;7.938;2022-11-14T03:03:26;99791.66;;;7.08;98.11
20755;BME280;26385;48.470;7.938;2022-11-14T03:05:51;99797.66;;;7.07;98.68
20755;BME280;26385;48.470;7.938;2022-11-14T03:08:18;99796.19;;;7.17;97.19
20755;BME280;26385;48.470;7.938;2022-11-14T03:10:44;99801.38;;;7.18;96.98
20755;BME280;26385;48.470;7.938;2022-11-14T03:13:10;99797.94;;;7.18;96.79
20755;BME280;26385;48.470;7.938;2022-11-14T03:15:36;99796.31;;;7.21;96.45
20755;BME280;26385;48.470;7.938;2022-11-14T03:18:02;99799.53;;;6.84;96.84
20755;BME280;26385;48.470;7.938;2022-11-14T03:20:27;99799.28;;;6.75;97.14
20755;BME280;26385;48.470;7.938;2022-11-14T03:22:52;99796.91;;;6.81;97.14
20755;BME280;26385;48.470;7.938;2022-11-14T03:25:18;99801.84;;;6.75;97.52
20755;BME280;26385;48.470;7.938;2022-11-14T03:27:43;99802.16;;;6.57;98.05
20755;BME280;26385;48.470;7.938;2022-11-14T03:30:09;99796.88;;;6.53;97.51
20755;BME280;26385;48.470;7.938;2022-11-14T03:32:34;99800.53;;;6.32;99.72
20755;BME280;26385;48.470;7.938;2022-11-14T03:34:59;99805.78;;;6.10;100.00
20755;BME280;26385;48.470;7.938;2022-11-14T03:37:25;99803.44;;;6.16;100.00
20755;BME280;26385;48.470;7.938;2022-11-14T03:39:50;99802.91;;;6.26;100.00
20755;BME280;26385;48.470;7.938;2022-11-14T03:42:15;99808.31;;;6.35;100.00
20755;BME280;26385;48.470;7.938;2022-11-14T03:44:40;99807.59;;;6.12;100.00
20755;BME280;26385;48.470;7.938;2022-11-14T03:47:06;99796.53;;;6.15;99.87
20755;BME280;26385;48.470;7.938;2022-11-14T03:49:31;99801.19;;;6.27;99.64
20755;BME280;26385;48.470;7.938;2022-11-14T03:51:56;99797.28;;;6.12;98.22
20755;BME280;26385;48.470;7.938;2022-11-14T03:54:21;99789.66;;;6.14;100.00
20755;BME280;26385;48.470;7.938;2022-11-14T03:56:47;99781.56;;;6.30;99.34
20755;BME280;26385;48.470;7.938;2022-11-14T03:59:12;99781.81;;;6.11;96.92
20755;BME280;26385;48.470;7.938;2022-11-14T04:01:37;99781.16;;;6.16;97.31
20755;BME280;26385;48.470;7.938;2022-11-14T04:04:02;99782.59;;;5.83;97.99
20755;BME280;26385;48.470;7.938;2022-11-14T04:06:28;99773.81;;;6.02;97.23
20755;BME280;26385;48.470;7.938;2022-11-14T04:08:53;99775.81;;;6.10;98.24
20755;BME280;26385;48.470;7.938;2022-11-14T04:11:20;99781.41;;;6.24;96.75
20755;BME280;26385;48.470;7.938;2022-11-14T04:13:46;99772.41;;;6.11;96.19
20755;BME280;26385;48.470;7.938;2022-11-14T04:16:11;99775.97;;;6.15;96.63
20755;BME280;26385;48.470;7.938;2022-11-14T04:18:36;99773.06;;;6.31;95.82
20755;BME280;26385;48.470;7.938;2022-11-14T04:21:02;99763.69;;;6.33;95.36
20755;BME280;26385;48.470;7.938;2022-11-14T04:23:27;99768.91;;;6.36;95.67
20755;BME280;26385;48.470;7.938;2022-11-14T04:25:52;99765.34;;;6.31;95.52
20755;BME280;26385;48.470;7.938;2022-11-14T04:28:18;99762.34;;;6.17;96.33
20755;BME280;26385;48.470;7.938;2022-11-14T04:30:43;99761.75;;;6.26;96.14
20755;BME280;26385;48.470;7.938;2022-11-14T04:33:09;99769.50;;;6.01;97.77
20755;BME280;26385;48.470;7.938;2022-11-14T04:35:34;99778.13;;;6.03;97.75
20755;BME280;26385;48.470;7.938;2022-11-14T04:38:00;99765.56;;;5.86;99.17
20755;BME280;26385;48.470;7.938;2022-11-14T04:40:25;99771.88;;;5.95;99.69
20755;BME280;26385;48.470;7.938;2022-11-14T04:42:50;99766.31;;;6.08;99.68
20755;BME280;26385;48.470;7.938;2022-11-14T04:45:15;99759.56;;;6.11;99.15
20755;BME280;26385;48.470;7.938;2022-11-14T04:47:41;99767.44;;;6.16;98.92
20755;BME280;26385;48.470;7.938;2022-11-14T04:50:07;99771.53;;;6.11;99.28
20755;BME280;26385;48.470;7.938;2022-11-14T04:52:32;99773.44;;;6.16;99.64
20755;BME280;26385;48.470;7.938;2022-11-14T04:54:57;99767.81;;;6.28;99.83
20755;BME280;26385;48.470;7.938;2022-11-14T04:57:23;99756.59;;;6.26;100.00
20755;BME280;26385;48.470;7.938;2022-11-14T04:59:48;99760.06;;;6.27;99.58
20755;BME280;26385;48.470;7.938;2022-11-14T05:02:13;99756.81;;;6.32;99.60
20755;BME280;26385;48.470;7.938;2022-11-14T05:04:38;99751.91;;;6.40;99.93
20755;BME280;26385;48.470;7.938;2022-11-14T05:07:04;99738.28;;;6.44;97.71
20755;BME280;26385;48.470;7.938;2022-11-14T05:09:29;99731.38;;;6.41;98.20
20755;BME280;26385;48.470;7.938;2022-11-14T05:11:54;99731.25;;;6.38;98.77
20755;BME280;26385;48.470;7.938;2022-11-14T05:14:19;99729.66;;;6.42;98.37
20755;BME280;26385;48.470;7.938;2022-11-14T05:16:45;99734.88;;;6.45;98.46
20755;BME280;26385;48.470;7.938;2022-11-14T05:19:10;99731.44;;;6.44;97.67
20755;BME280;26385;48.470;7.938;2022-11-14T05:21:35;99732.25;;;6.42;96.33
20755;BME280;26385;48.470;7.938;2022-11-14T05:24:00;99730.16;;;6.59;95.18
20755;BME280;26385;48.470;7.938;2022-11-14T05:26:26;99726.81;;;6.61;94.25
20755;BME280;26385;48.470;7.938;2022-11-14T05:28:51;99712.47;;;6.99;100.00
20755;BME280;26385;48.470;7.938;2022-11-14T05:31:16;99715.91;;;7.99;100.00
20755;BME280;26385;48.470;7.938;2022-11-14T05:33:42;99696.50;;;8.54;100.00
20755;BME280;26385;48.470;7.938;2022-11-14T05:36:10;99708.16;;;8.74;100.00
20755;BME280;26385;48.470;7.938;2022-11-14T05:38:36;99689.75;;;9.03;100.00
20755;BME280;26385;48.470;7.938;2022-11-14T05:41:06;99703.91;;;9.23;96.86
20755;BME280;26385;48.470;7.938;2022-11-14T05:43:31;99698.28;;;8.99;92.26
20755;BME280;26385;48.470;7.938;2022-11-14T05:46:01;99704.38;;;9.01;94.55
20755;BME280;26385;48.470;7.938;2022-11-14T05:48:27;99710.84;;;8.82;89.29
20755;BME280;26385;48.470;7.938;2022-11-14T05:50:54;99716.28;;;8.54;90.14
20755;BME280;26385;48.470;7.938;2022-11-14T05:53:19;99717.47;;;8.32;91.51
20755;BME280;26385;48.470;7.938;2022-11-14T05:55:44;99718.69;;;8.08;90.74
20755;BME280;26385;48.470;7.938;2022-11-14T05:58:09;99714.84;;;7.91;91.54
20755;BME280;26385;48.470;7.938;2022-11-14T06:00:35;99716.69;;;7.62;90.74
20755;BME280;26385;48.470;7.938;2022-11-14T06:03:00;99705.47;;;7.60;91.89
20755;BME280;26385;48.470;7.938;2022-11-14T06:05:25;99700.00;;;7.48;91.65
20755;BME280;26385;48.470;7.938;2022-11-14T06:07:57;99701.56;;;7.41;91.39
20755;BME280;26385;48.470;7.938;2022-11-14T06:10:23;99705.84;;;7.41;92.39
20755;BME280;26385;48.470;7.938;2022-11-14T06:12:49;99697.91;;;7.33;92.56
20755;BME280;26385;48.470;7.938;2022-11-14T06:15:15;99697.88;;;7.31;92.12
20755;BME280;26385;48.470;7.938;2022-11-14T06:17:40;99706.41;;;7.30;92.23
20755;BME280;26385;48.470;7.938;2022-11-14T06:20:06;99707.03;;;7.22;91.38
20755;BME280;26385;48.470;7.938;2022-11-14T06:22:31;99707.16;;;7.25;92.09
20755;BME280;26385;48.470;7.938;2022-11-14T06:24:57;99697.59;;;7.21;91.69
20755;BME280;26385;48.470;7.938;2022-11-14T06:27:22;99706.22;;;7.23;92.56
20755;BME280;26385;48.470;7.938;2022-11-14T06:29:48;99701.91;;;7.22;91.63
20755;BME280;26385;48.470;7.938;2022-11-14T06:32:13;99698.59;;;7.26;92.52
20755;BME280;26385;48.470;7.938;2022-11-14T06:34:38;99699.00;;;7.10;90.64
20755;BME280;26385;48.470;7.938;2022-11-14T06:37:04;99691.03;;;7.00;90.57
20755;BME280;26385;48.470;7.938;2022-11-14T06:39:29;99693.41;;;6.93;91.48
20755;BME280;26385;48.470;7.938;2022-11-14T06:41:54;99690.88;;;6.94;91.67
20755;BME280;26385;48.470;7.938;2022-11-14T06:44:20;99704.72;;;6.98;91.98
20755;BME280;26385;48.470;7.938;2022-11-14T06:46:45;99699.81;;;7.07;91.24
20755;BME280;26385;48.470;7.938;2022-11-14T06:49:10;99699.84;;;7.09;91.44
20755;BME280;26385;48.470;7.938;2022-11-14T06:51:36;99696.50;;;7.13;91.18
20755;BME280;26385;48.470;7.938;2022-11-14T06:54:01;99704.13;;;7.08;91.16
20755;BME280;26385;48.470;7.938;2022-11-14T06:56:26;99694.72;;;7.10;90.92
20755;BME280;26385;48.470;7.938;2022-11-14T06:58:52;99710.19;;;7.10;91.00
20755;BME280;26385;48.470;7.938;2022-11-14T07:01:22;99696.47;;;7.11;91.54
20755;BME280;26385;48.470;7.938;2022-11-14T07:03:48;99697.75;;;6.95;92.98
20755;BME280;26385;48.470;7.938;2022-11-14T07:06:16;99703.28;;;6.79;93.09
20755;BME280;26385;48.470;7.938;2022-11-14T07:08:41;99695.44;;;6.73;94.56
20755;BME280;26385;48.470;7.938;2022-11-14T07:11:12;99712.03;;;6.84;93.00
20755;BME280;26385;48.470;7.938;2022-11-14T07:13:56;99707.78;;;6.86;93.06
20755;BME280;26385;48.470;7.938;2022-11-14T07:16:24;99704.56;;;6.93;93.51
20755;BME280;26385;48.470;7.938;2022-11-14T07:18:49;99711.66;;;7.02;93.17
20755;BME280;26385;48.470;7.938;2022-11-14T07:21:14;99731.31;;;6.98;92.99
20755;BME280;26385;48.470;7.938;2022-11-14T07:23:40;99723.66;;;7.01;92.33
20755;BME280;26385;48.470;7.938;2022-11-14T07:26:09;99725.34;;;6.99;93.32
20755;BME280;26385;48.470;7.938;2022-11-14T07:28:36;99729.69;;;7.02;92.82
20755;BME280;26385;48.470;7.938;2022-11-14T07:31:02;99738.19;;;6.98;92.55
20755;BME280;26385;48.470;7.938;2022-11-14T07:33:29;99738.22;;;6.99;93.78
20755;BME280;26385;48.470;7.938;2022-11-14T07:35:54;99741.88;;;7.08;92.48
20755;BME280;26385;48.470;7.938;2022-11-14T07:38:20;99733.31;;;7.09;93.20
20755;BME280;26385;48.470;7.938;2022-11-14T07:40:59;99742.59;;;7.03;93.34
20755;BME280;26385;48.470;7.938;2022-11-14T07:43:25;99742.75;;;7.08;93.10
20755;BME280;26385;48.470;7.938;2022-11-14T07:45:50;99750.56;;;7.13;93.26
20755;BME280;26385;48.470;7.938;2022-11-14T07:48:16;99749.09;;;7.21;92.69
20755;BME280;26385;48.470;7.938;2022-11-14T07:50:41;99752.50;;;7.20;92.17
20755;BME280;26385;48.470;7.938;2022-11-14T07:53:07;99753.56;;;7.28;92.65
20755;BME280;26385;48.470;7.938;2022-11-14T07:55:36;99743.31;;;7.29;92.85
20755;BME280;26385;48.470;7.938;2022-11-14T07:58:01;99731.47;;;7.36;92.68
20755;BME280;26385;48.470;7.938;2022-11-14T08:00:27;99751.53;;;7.48;92.31
20755;BME280;26385;48.470;7.938;2022-11-14T08:02:52;99745.63;;;7.52;92.81
20755;BME280;26385;48.470;7.938;2022-11-14T08:05:18;99746.44;;;7.49;91.45
20755;BME280;26385;48.470;7.938;2022-11-14T08:07:43;99740.47;;;7.52;92.58
20755;BME280;26385;48.470;7.938;2022-11-14T08:10:10;99738.00;;;7.56;91.56
20755;BME280;26385;48.470;7.938;2022-11-14T08:12:37;99733.84;;;7.61;92.21
20755;BME280;26385;48.470;7.938;2022-11-14T08:15:08;99728.91;;;7.69;92.00
20755;BME280;26385;48.470;7.938;2022-11-14T08:17:33;99725.69;;;7.78;91.50
20755;BME280;26385;48.470;7.938;2022-11-14T08:19:59;99728.03;;;7.69;92.28
20755;BME280;26385;48.470;7.938;2022-11-14T08:22:24;99730.84;;;7.78;91.82
20755;BME280;26385;48.470;7.938;2022-11-14T08:24:49;99728.25;;;7.78;91.29
20755;BME280;26385;48.470;7.938;2022-11-14T08:27:14;99723.22;;;7.82;91.21
20755;BME280;26385;48.470;7.938;2022-11-14T08:29:40;99728.53;;;7.90;90.81
20755;BME280;26385;48.470;7.938;2022-11-14T08:32:05;99731.38;;;7.99;90.48
20755;BME280;26385;48.470;7.938;2022-11-14T08:34:30;99725.44;;;8.03;90.32
20755;BME280;26385;48.470;7.938;2022-11-14T08:36:56;99726.31;;;8.04;90.32
20755;BME280;26385;48.470;7.938;2022-11-14T08:39:22;99743.50;;;8.05;90.07
20755;BME280;26385;48.470;7.938;2022-11-14T08:41:47;99728.13;;;8.08;90.26
20755;BME280;26385;48.470;7.938;2022-11-14T08:44:12;99731.59;;;8.08;90.06
20755;BME280;26385;48.470;7.938;2022-11-14T08:46:38;99722.16;;;8.10;90.47
20755;BME280;26385;48.470;7.938;2022-11-14T08:49:03;99725.84;;;8.22;89.91
20755;BME280;26385;48.470;7.938;2022-11-14T08:51:28;99722.38;;;8.19;90.88
20755;BME280;26385;48.470;7.938;2022-11-14T08:53:53;99732.88;;;8.27;90.11
20755;BME280;26385;48.470;7.938;2022-11-14T08:56:19;99734.25;;;8.13;90.22
20755;BME280;26385;48.470;7.938;2022-11-14T08:58:44;99730.09;;;8.18;89.82
20755;BME280;26385;48.470;7.938;2022-11-14T09:01:09;99719.00;;;8.24;89.39
20755;BME280;26385;48.470;7.938;2022-11-14T09:03:35;99715.56;;;8.23;90.14
20755;BME280;26385;48.470;7.938;2022-11-14T09:06:01;99718.22;;;8.25;90.30
20755;BME280;26385;48.470;7.938;2022-11-14T09:08:27;99721.75;;;8.30;90.08
20755;BME280;26385;48.470;7.938;2022-11-14T09:10:53;99721.75;;;8.30;89.98
20755;BME280;26385;48.470;7.938;2022-11-14T09:13:18;99715.16;;;8.41;90.44
20755;BME280;26385;48.470;7.938;2022-11-14T09:15:44;99709.94;;;8.39;90.58
20755;BME280;26385;48.470;7.938;2022-11-14T09:18:10;99719.69;;;8.51;90.21
20755;BME280;26385;48.470;7.938;2022-11-14T09:20:36;99715.41;;;8.53;90.38
20755;BME280;26385;48.470;7.938;2022-11-14T09:23:01;99712.00;;;8.54;89.83
20755;BME280;26385;48.470;7.938;2022-11-14T09:25:28;99711.25;;;8.58;89.92
20755;BME280;26385;48.470;7.938;2022-11-14T09:27:54;99711.25;;;8.58;89.91
20755;BME280;26385;48.470;7.938;2022-11-14T09:30:20;99711.25;;;8.60;89.88
20755;BME280;26385;48.470;7.938;2022-11-14T09:32:46;99709.75;;;8.69;89.16
20755;BME280;26385;48.470;7.938;2022-11-14T09:35:12;99707.34;;;8.79;89.58
20755;BME280;26385;48.470;7.938;2022-11-14T09:37:38;99707.31;;;8.77;89.95
20755;BME280;26385;48.470;7.938;2022-11-14T09:40:04;99709.28;;;8.90;89.97
20755;BME280;26385;48.470;7.938;2022-11-14T09:45:02;99719.88;;;9.01;88.75
20755;BME280;26385;48.470;7.938;2022-11-14T09:50:25;99706.00;;;8.97;88.50
20755;BME280;26385;48.470;7.938;2022-11-14T09:52:58;99705.22;;;9.01;88.70
20755;BME280;26385;48.470;7.938;2022-11-14T09:55:32;99700.16;;;9.08;88.62
20755;BME280;26385;48.470;7.938;2022-11-14T09:58:00;99704.63;;;9.16;88.59
20755;BME280;26385;48.470;7.938;2022-11-14T10:00:42;99701.16;;;9.14;88.71
20755;BME280;26385;48.470;7.938;2022-11-14T10:03:36;99701.00;;;9.07;89.61
20755;BME280;26385;48.470;7.938;2022-11-14T10:06:22;99701.81;;;9.02;90.06
20755;BME280;26385;48.470;7.938;2022-11-14T10:11:28;99701.94;;;9.09;90.22
20755;BME280;26385;48.470;7.938;2022-11-14T10:14:18;99703.81;;;9.17;90.21
20755;BME280;26385;48.470;7.938;2022-11-14T10:19:26;99706.44;;;9.19;89.75
20755;BME280;26385;48.470;7.938;2022-11-14T10:22:26;99702.88;;;9.14;89.17
20755;BME280;26385;48.470;7.938;2022-11-14T10:30:33;99696.88;;;9.16;89.10
20755;BME280;26385;48.470;7.938;2022-11-14T10:33:30;99697.84;;;9.21;88.86
20755;BME280;26385;48.470;7.938;2022-11-14T10:36:12;99692.72;;;9.24;89.28
20755;BME280;26385;48.470;7.938;2022-11-14T10:38:52;99690.38;;;9.37;89.03
20755;BME280;26385;48.470;7.938;2022-11-14T10:41:19;99686.78;;;9.27;89.74
20755;BME280;26385;48.470;7.938;2022-11-14T10:43:47;99694.72;;;9.39;89.53
20755;BME280;26385;48.470;7.938;2022-11-14T10:46:27;99705.03;;;9.36;89.39
20755;BME280;26385;48.470;7.938;2022-11-14T10:48:54;99694.09;;;9.51;88.56
20755;BME280;26385;48.470;7.938;2022-11-14T10:51:36;99696.75;;;9.55;88.94
20755;BME280;26385;48.470;7.938;2022-11-14T10:54:13;99691.72;;;9.65;88.23
20755;BME280;26385;48.470;7.938;2022-11-14T10:56:50;99689.97;;;9.64;88.92
20755;BME280;26385;48.470;7.938;2022-11-14T10:59:16;99687.38;;;9.62;89.18
20755;BME280;26385;48.470;7.938;2022-11-14T11:01:44;99681.47;;;9.69;89.01
20755;BME280;26385;48.470;7.938;2022-11-14T11:04:30;99693.66;;;9.76;89.20
20755;BME280;26385;48.470;7.938;2022-11-14T11:07:17;99689.41;;;9.81;89.12
20755;BME280;26385;48.470;7.938;2022-11-14T11:10:03;99689.41;;;9.81;89.02
20755;BME280;26385;48.470;7.938;2022-11-14T11:12:53;99687.72;;;9.83;89.58
20755;BME280;26385;48.470;7.938;2022-11-14T11:15:24;99686.06;;;9.87;89.32
20755;BME280;26385;48.470;7.938;2022-11-14T11:18:03;99684.47;;;9.97;89.85
20755;BME280;26385;48.470;7.938;2022-11-14T11:20:35;99687.97;;;9.99;88.75
20755;BME280;26385;48.470;7.938;2022-11-14T11:25:37;99687.19;;;10.04;88.80
20755;BME280;26385;48.470;7.938;2022-11-14T11:28:17;99692.47;;;10.10;88.63
20755;BME280;26385;48.470;7.938;2022-11-14T11:31:06;99682.13;;;10.10;89.09
20755;BME280;26385;48.470;7.938;2022-11-14T11:33:33;99687.34;;;10.15;88.57
20755;BME280;26385;48.470;7.938;2022-11-14T11:36:02;99685.59;;;10.12;88.63
20755;BME280;26385;48.470;7.938;2022-11-14T11:38:29;99677.78;;;10.09;89.24
20755;BME280;26385;48.470;7.938;2022-11-14T11:41:04;99678.69;;;10.11;89.30
20755;BME280;26385;48.470;7.938;2022-11-14T11:43:54;99678.72;;;10.14;89.26
20755;BME280;26385;48.470;7.938;2022-11-14T11:46:25;99680.53;;;10.22;88.54
20755;BME280;26385;48.470;7.938;2022-11-14T11:48:58;99676.28;;;10.22;89.37
20755;BME280;26385;48.470;7.938;2022-11-14T11:51:27;99672.75;;;10.19;89.42
20755;BME280;26385;48.470;7.938;2022-11-14T11:54:14;99673.69;;;10.24;89.27
20755;BME280;26385;48.470;7.938;2022-11-14T11:56:42;99676.28;;;10.25;89.92
20755;BME280;26385;48.470;7.938;2022-11-14T11:59:21;99671.13;;;10.25;90.28
20755;BME280;26385;48.470;7.938;2022-11-14T12:01:50;99666.22;;;10.43;90.18
20755;BME280;26385;48.470;7.938;2022-11-14T12:04:16;99670.47;;;10.38;90.40
20755;BME280;26385;48.470;7.938;2022-11-14T12:06:46;99675.72;;;10.45;90.42
20755;BME280;26385;48.470;7.938;2022-11-14T12:09:27;99674.91;;;10.49;90.05
20755;BME280;26385;48.470;7.938;2022-11-14T12:12:00;99672.41;;;10.55;90.10
20755;BME280;26385;48.470;7.938;2022-11-14T12:20:16;99663.19;;;10.77;90.93
20755;BME280;26385;48.470;7.938;2022-11-14T12:23:13;99671.97;;;10.92;90.73
20755;BME280;26385;48.470;7.938;2022-11-14T12:31:46;99650.63;;;11.12;90.37
20755;BME280;26385;48.470;7.938;2022-11-14T12:34:30;99657.63;;;11.22;89.92
20755;BME280;26385;48.470;7.938;2022-11-14T12:36:57;99657.66;;;11.26;89.81
20755;BME280;26385;48.470;7.938;2022-11-14T12:39:27;99656.06;;;11.42;89.40
20755;BME280;26385;48.470;7.938;2022-11-14T12:42:05;99662.16;;;11.44;88.63
20755;BME280;26385;48.470;7.938;2022-11-14T12:44:36;99657.88;;;11.51;88.54
20755;BME280;26385;48.470;7.938;2022-11-14T12:49:57;99664.84;;;11.55;88.12
20755;BME280;26385;48.470;7.938;2022-11-14T13:00:21;99655.91;;;12.32;83.29
20755;BME280;26385;48.470;7.938;2022-11-14T13:03:12;99654.28;;;12.58;81.19
20755;BME280;26385;48.470;7.938;2022-11-14T13:05:54;99651.69;;;12.58;81.22
20755;BME280;26385;48.470;7.938;2022-11-14T13:10:49;99650.84;;;12.61;80.28
20755;BME280;26385;48.470;7.938;2022-11-14T13:13:15;99644.78;;;12.60;80.37
20755;BME280;26385;48.470;7.938;2022-11-14T13:16:01;99650.88;;;12.67;80.80
20755;BME280;26385;48.470;7.938;2022-11-14T13:19:14;99660.44;;;12.85;79.49
20755;BME280;26385;48.470;7.938;2022-11-14T13:29:53;99645.81;;;13.14;75.97
20755;BME280;26385;48.470;7.938;2022-11-14T13:37:58;99644.13;;;13.53;72.51
20755;BME280;26385;48.470;7.938;2022-11-14T13:46:32;99643.28;;;13.78;69.82
20755;BME280;26385;48.470;7.938;2022-11-14T13:49:23;99643.28;;;13.74;70.26
20755;BME280;26385;48.470;7.938;2022-11-14T13:51:55;99645.03;;;13.64;70.15
20755;BME280;26385;48.470;7.938;2022-11-14T13:54:20;99652.81;;;13.76;70.08
20755;BME280;26385;48.470;7.938;2022-11-14T13:57:07;99651.97;;;13.79;69.92
20755;BME280;26385;48.470;7.938;2022-11-14T14:18:42;99644.13;;;13.85;68.75
20755;BME280;26385;48.470;7.938;2022-11-14T14:24:13;99642.38;;;13.95;68.33
20755;BME280;26385;48.470;7.938;2022-11-14T14:27:13;99634.56;;;14.08;67.15
20755;BME280;26385;48.470;7.938;2022-11-14T14:32:18;99625.91;;;14.00;66.72
20755;BME280;26385;48.470;7.938;2022-11-14T14:34:44;99626.75;;;14.04;66.80
20755;BME280;26385;48.470;7.938;2022-11-14T14:37:21;99625.94;;;13.88;66.75
20755;BME280;26385;48.470;7.938;2022-11-14T14:39:57;99629.38;;;13.98;66.78
20755;BME280;26385;48.470;7.938;2022-11-14T14:42:23;99625.00;;;14.15;66.07
20755;BME280;26385;48.470;7.938;2022-11-14T14:44:49;99621.56;;;14.07;66.35
20755;BME280;26385;48.470;7.938;2022-11-14T14:47:35;99625.91;;;13.93;66.47